createdAt,value
2023-04-16T00:01:04.882Z,14.60
2023-04-16T00:03:31.791Z,14.60
2023-04-16T00:05:59.272Z,14.60
2023-04-16T00:08:26.085Z,14.60
2023-04-16T00:10:54.089Z,14.60
2023-04-16T00:13:21.027Z,14.60
2023-04-16T00:15:47.756Z,14.60
2023-04-16T00:18:14.537Z,14.50
2023-04-16T00:20:41.207Z,14.60
2023-04-16T00:23:07.941Z,14.60
2023-04-16T00:25:34.778Z,14.50
2023-04-16T00:28:01.465Z,14.50
2023-04-16T00:30:29.501Z,14.50
2023-04-16T00:32:56.239Z,14.50
2023-04-16T00:35:23.061Z,14.50
2023-04-16T00:37:51.792Z,14.50
2023-04-16T00:40:18.452Z,14.50
2023-04-16T00:42:45.839Z,14.50
2023-04-16T00:45:12.647Z,14.50
2023-04-16T00:47:39.570Z,14.40
2023-04-16T00:50:06.949Z,14.40
2023-04-16T00:52:34.491Z,14.40
2023-04-16T00:55:01.464Z,14.40
2023-04-16T00:57:28.148Z,14.40
2023-04-16T00:59:55.657Z,14.40
2023-04-16T01:02:22.831Z,14.40
2023-04-16T01:04:50.301Z,14.40
2023-04-16T01:07:17.313Z,14.40
2023-04-16T01:09:43.971Z,14.40
2023-04-16T01:12:10.674Z,14.40
2023-04-16T01:14:37.436Z,14.40
2023-04-16T01:17:04.522Z,14.40
2023-04-16T01:19:31.287Z,14.30
2023-04-16T01:21:59.478Z,14.30
2023-04-16T01:24:26.138Z,14.30
2023-04-16T01:26:53.263Z,14.30
2023-04-16T01:29:20.185Z,14.30
2023-04-16T01:31:47.118Z,14.30
2023-04-16T01:34:13.905Z,14.30
2023-04-16T01:36:40.582Z,14.30
2023-04-16T01:39:07.532Z,14.30
2023-04-16T01:41:34.406Z,14.30
2023-04-16T01:44:01.185Z,14.30
2023-04-16T01:46:31.441Z,14.30
2023-04-16T01:48:58.525Z,14.30
2023-04-16T01:51:25.448Z,14.30
2023-04-16T01:53:52.256Z,14.30
2023-04-16T01:56:20.609Z,14.30
2023-04-16T01:58:47.408Z,14.30
2023-04-16T02:01:14.506Z,14.20
2023-04-16T02:03:41.637Z,14.20
2023-04-16T02:06:08.636Z,14.20
2023-04-16T02:08:35.608Z,14.20
2023-04-16T02:11:08.291Z,14.20
2023-04-16T02:13:35.255Z,14.20
2023-04-16T02:16:02.722Z,14.20
2023-04-16T02:18:29.471Z,14.20
2023-04-16T02:20:59.978Z,14.20
2023-04-16T02:23:26.818Z,14.20
2023-04-16T02:25:53.734Z,14.20
2023-04-16T02:28:20.392Z,14.20
2023-04-16T02:30:47.069Z,14.30
2023-04-16T02:33:13.870Z,14.20
2023-04-16T02:35:41.275Z,14.20
2023-04-16T02:38:08.785Z,14.20
2023-04-16T02:40:35.484Z,14.20
2023-04-16T02:43:02.263Z,14.20
2023-04-16T02:45:31.405Z,14.20
2023-04-16T02:47:58.475Z,14.20
2023-04-16T02:50:25.358Z,14.20
2023-04-16T02:52:52.321Z,14.20
2023-04-16T02:55:19.149Z,14.20
2023-04-16T02:57:45.816Z,14.20
2023-04-16T03:00:12.952Z,14.20
2023-04-16T03:02:40.059Z,14.20
2023-04-16T03:05:07.095Z,14.20
2023-04-16T03:07:33.884Z,14.20
2023-04-16T03:10:00.707Z,14.30
2023-04-16T03:12:27.477Z,14.20
2023-04-16T03:14:54.220Z,14.20
2023-04-16T03:17:20.929Z,14.20
2023-04-16T03:19:47.687Z,14.20
2023-04-16T03:22:14.366Z,14.20
2023-04-16T03:24:41.059Z,14.20
2023-04-16T03:27:07.801Z,14.20
2023-04-16T03:29:37.774Z,14.20
2023-04-16T03:32:04.462Z,14.20
2023-04-16T03:34:31.134Z,14.20
2023-04-16T03:36:57.897Z,14.20
2023-04-16T03:39:24.528Z,14.20
2023-04-16T03:41:51.225Z,14.20
2023-04-16T03:44:17.898Z,14.20
2023-04-16T03:46:44.590Z,14.20
2023-04-16T03:49:11.520Z,14.20
2023-04-16T03:51:38.513Z,14.20
2023-04-16T03:54:05.234Z,14.20
2023-04-16T03:56:31.989Z,14.20
2023-04-16T03:58:58.647Z,14.20
2023-04-16T04:01:25.388Z,14.20
2023-04-16T04:03:52.351Z,14.20
2023-04-16T04:06:19.281Z,14.20
2023-04-16T04:08:45.941Z,14.20
2023-04-16T04:11:12.674Z,14.20
2023-04-16T04:13:39.414Z,14.10
2023-04-16T04:16:06.510Z,14.10
2023-04-16T04:18:33.304Z,14.10
2023-04-16T04:21:00.052Z,14.10
2023-04-16T04:23:26.694Z,14.20
2023-04-16T04:25:53.460Z,14.20
2023-04-16T04:28:20.194Z,14.10
2023-04-16T04:30:46.875Z,14.10
2023-04-16T04:33:13.685Z,14.20
2023-04-16T04:35:40.454Z,14.10
2023-04-16T04:38:07.281Z,14.20
2023-04-16T04:40:34.061Z,14.10
2023-04-16T04:43:00.859Z,14.10
2023-04-16T04:45:28.503Z,14.10
2023-04-16T04:47:57.065Z,14.10
2023-04-16T04:50:23.797Z,14.10
2023-04-16T04:52:50.510Z,14.10
2023-04-16T04:55:17.374Z,14.00
2023-04-16T04:57:44.147Z,14.10
2023-04-16T05:00:11.465Z,14.10
2023-04-16T05:02:38.613Z,14.10
2023-04-16T05:05:06.171Z,14.10
2023-04-16T05:07:32.851Z,14.10
2023-04-16T05:09:59.550Z,14.10
2023-04-16T05:12:26.216Z,14.10
2023-04-16T05:14:52.871Z,14.10
2023-04-16T05:17:19.617Z,14.00
2023-04-16T05:19:46.360Z,14.00
2023-04-16T05:22:13.134Z,14.10
2023-04-16T05:24:39.912Z,14.10
2023-04-16T05:27:06.670Z,14.00
2023-04-16T05:29:33.389Z,14.10
2023-04-16T05:32:00.078Z,14.10
2023-04-16T05:34:26.757Z,14.10
2023-04-16T05:36:53.482Z,14.10
2023-04-16T05:39:20.448Z,14.10
2023-04-16T05:41:47.210Z,14.10
2023-04-16T05:44:15.261Z,14.10
2023-04-16T05:46:42.064Z,14.00
2023-04-16T05:49:09.031Z,14.00
2023-04-16T05:51:36.230Z,14.00
2023-04-16T05:54:03.030Z,14.00
2023-04-16T05:56:30.752Z,14.10
2023-04-16T05:58:57.422Z,14.00
2023-04-16T06:01:25.526Z,14.10
2023-04-16T06:03:52.373Z,14.10
2023-04-16T06:06:19.088Z,14.00
2023-04-16T06:08:45.962Z,14.10
2023-04-16T06:11:12.668Z,14.00
2023-04-16T06:13:39.389Z,14.00
2023-04-16T06:16:06.505Z,14.00
2023-04-16T06:18:33.255Z,14.10
2023-04-16T06:21:00.002Z,14.10
2023-04-16T06:23:26.768Z,14.10
2023-04-16T06:25:53.511Z,14.10
2023-04-16T06:28:20.299Z,14.10
2023-04-16T06:30:47.546Z,14.10
2023-04-16T06:33:14.223Z,14.10
2023-04-16T06:35:40.952Z,14.10
2023-04-16T06:38:07.688Z,14.00
2023-04-16T06:40:34.621Z,14.00
2023-04-16T06:43:01.520Z,14.00
2023-04-16T06:45:28.194Z,14.10
2023-04-16T06:47:55.027Z,14.10
2023-04-16T06:50:23.344Z,14.10
2023-04-16T06:52:50.493Z,14.10
2023-04-16T06:55:17.243Z,14.10
2023-04-16T06:57:44.073Z,14.10
2023-04-16T07:00:11.840Z,14.10
2023-04-16T07:02:38.625Z,14.10
2023-04-16T07:05:05.740Z,14.10
2023-04-16T07:07:32.895Z,14.10
2023-04-16T07:10:01.278Z,14.10
2023-04-16T07:12:28.045Z,14.00
2023-04-16T07:14:55.791Z,14.00
2023-04-16T07:17:22.426Z,14.00
2023-04-16T07:19:49.174Z,14.00
2023-04-16T07:22:15.902Z,14.00
2023-04-16T07:24:42.679Z,14.10
2023-04-16T07:27:09.361Z,14.10
2023-04-16T07:29:36.235Z,14.00
2023-04-16T07:32:03.019Z,14.00
2023-04-16T07:34:29.841Z,14.00
2023-04-16T07:36:56.767Z,14.00
2023-04-16T07:39:23.483Z,14.00
2023-04-16T07:41:50.236Z,14.00
2023-04-16T07:44:17.215Z,14.00
2023-04-16T07:46:47.478Z,14.00
2023-04-16T07:49:14.637Z,14.00
2023-04-16T07:51:41.464Z,14.00
2023-04-16T07:54:08.131Z,14.00
2023-04-16T07:56:34.845Z,14.00
2023-04-16T07:59:14.464Z,14.00
2023-04-16T08:01:46.014Z,14.10
2023-04-16T08:04:13.046Z,14.10
2023-04-16T08:06:40.006Z,14.10
2023-04-16T08:09:07.394Z,14.10
2023-04-16T08:11:34.315Z,14.10
2023-04-16T08:14:01.325Z,14.10
2023-04-16T08:16:28.107Z,14.10
2023-04-16T08:18:54.998Z,14.10
2023-04-16T08:21:22.150Z,14.10
2023-04-16T08:23:48.830Z,14.10
2023-04-16T08:26:17.402Z,14.10
2023-04-16T08:28:44.181Z,14.10
2023-04-16T08:31:11.133Z,14.10
2023-04-16T08:33:37.904Z,14.10
2023-04-16T08:36:04.829Z,14.10
2023-04-16T08:38:31.532Z,14.10
2023-04-16T08:41:05.693Z,14.10
2023-04-16T08:43:39.282Z,14.10
2023-04-16T08:46:06.708Z,14.10
2023-04-16T08:48:35.156Z,14.00
2023-04-16T08:51:02.442Z,14.00
2023-04-16T08:53:53.521Z,14.00
2023-04-16T08:56:22.954Z,14.00
2023-04-16T08:58:51.697Z,14.10
2023-04-16T09:01:18.979Z,14.10
2023-04-16T09:03:48.518Z,14.20
2023-04-16T09:06:16.415Z,14.20
2023-04-16T09:08:46.554Z,14.20
2023-04-16T09:11:20.451Z,14.20
2023-04-16T09:13:47.659Z,14.20
2023-04-16T09:16:15.304Z,14.20
2023-04-16T09:18:42.246Z,14.20
2023-04-16T09:21:12.568Z,14.20
2023-04-16T09:23:41.107Z,14.20
2023-04-16T09:26:07.902Z,14.20
2023-04-16T09:28:41.375Z,14.30
2023-04-16T09:31:15.936Z,14.30
2023-04-16T09:33:43.940Z,14.20
2023-04-16T09:36:11.116Z,14.30
2023-04-16T09:38:54.543Z,14.20
2023-04-16T09:41:27.553Z,14.20
2023-04-16T09:43:59.126Z,14.20
2023-04-16T09:46:37.567Z,14.30
2023-04-16T09:49:18.897Z,14.20
2023-04-16T09:51:49.660Z,14.30
2023-04-16T09:54:16.461Z,14.30
2023-04-16T09:56:45.606Z,14.30
2023-04-16T09:59:19.217Z,14.30
2023-04-16T10:02:14.992Z,14.30
2023-04-16T10:04:51.721Z,14.30
2023-04-16T10:07:19.589Z,14.30
2023-04-16T10:09:50.102Z,14.30
2023-04-16T10:12:16.834Z,14.30
2023-04-16T10:14:43.982Z,14.40
2023-04-16T10:17:11.429Z,14.40
2023-04-16T10:19:39.160Z,14.40
2023-04-16T10:22:06.327Z,14.40
2023-04-16T10:24:34.652Z,14.40
2023-04-16T10:27:02.761Z,14.40
2023-04-16T10:29:31.447Z,14.40
2023-04-16T10:31:58.496Z,14.40
2023-04-16T10:34:26.356Z,14.50
2023-04-16T10:36:54.125Z,14.50
2023-04-16T10:39:25.621Z,14.50
2023-04-16T10:42:10.556Z,14.50
2023-04-16T10:44:37.568Z,14.50
2023-04-16T10:47:11.831Z,14.50
2023-04-16T10:49:38.760Z,14.50
2023-04-16T10:52:16.933Z,14.60
2023-04-16T10:54:43.778Z,14.60
2023-04-16T10:57:16.214Z,14.60
2023-04-16T10:59:43.968Z,14.60
2023-04-16T11:02:15.573Z,14.70
2023-04-16T11:04:47.313Z,14.70
2023-04-16T11:07:32.553Z,14.70
2023-04-16T11:10:06.746Z,14.70
2023-04-16T11:12:38.149Z,14.80
2023-04-16T11:15:13.033Z,14.80
2023-04-16T11:17:48.678Z,14.80
2023-04-16T11:20:23.855Z,14.80
2023-04-16T11:22:51.907Z,14.90
2023-04-16T11:25:22.765Z,14.90
2023-04-16T11:27:50.688Z,14.90
2023-04-16T11:30:18.514Z,14.90
2023-04-16T11:32:45.720Z,14.90
2023-04-16T11:35:18.177Z,14.90
2023-04-16T11:37:45.795Z,14.90
2023-04-16T11:40:13.013Z,14.90
2023-04-16T11:42:41.434Z,14.90
2023-04-16T11:45:11.310Z,14.90
2023-04-16T11:47:51.774Z,15.00
2023-04-16T11:50:21.380Z,15.00
2023-04-16T11:52:49.511Z,15.00
2023-04-16T11:55:16.225Z,15.00
2023-04-16T11:57:42.968Z,15.00
2023-04-16T12:00:14.164Z,15.10
2023-04-16T12:03:07.161Z,15.10
2023-04-16T12:05:35.716Z,15.10
2023-04-16T12:08:04.719Z,15.10
2023-04-16T12:10:35.125Z,15.10
2023-04-16T12:13:15.668Z,15.10
2023-04-16T12:15:47.116Z,15.20
2023-04-16T12:18:16.166Z,15.20
2023-04-16T12:20:43.685Z,15.20
2023-04-16T12:23:21.984Z,15.20
2023-04-16T12:25:50.052Z,15.20
2023-04-16T12:28:30.000Z,15.30
2023-04-16T12:30:57.026Z,15.30
2023-04-16T12:33:23.938Z,15.30
2023-04-16T12:35:50.947Z,15.30
2023-04-16T12:38:17.865Z,15.30
2023-04-16T12:40:44.944Z,15.30
2023-04-16T12:45:39.920Z,15.30
2023-04-16T12:48:06.871Z,15.40
2023-04-16T12:50:33.746Z,15.40
2023-04-16T12:53:00.700Z,15.40
2023-04-16T12:55:27.372Z,15.40
2023-04-16T12:57:54.690Z,15.40
2023-04-16T13:00:21.706Z,15.50
2023-04-16T13:02:48.671Z,15.50
2023-04-16T13:05:16.647Z,15.50
2023-04-16T13:07:43.517Z,15.50
2023-04-16T13:10:10.877Z,15.50
2023-04-16T13:12:37.696Z,15.50
2023-04-16T13:15:05.279Z,15.50
2023-04-16T13:17:32.083Z,15.50
2023-04-16T13:19:58.795Z,15.50
2023-04-16T13:22:25.524Z,15.50
2023-04-16T13:24:52.322Z,15.60
2023-04-16T13:27:19.089Z,15.50
2023-04-16T13:29:47.119Z,15.60
2023-04-16T13:32:14.726Z,15.60
2023-04-16T13:34:41.557Z,15.60
2023-04-16T13:37:08.221Z,15.60
2023-04-16T13:39:35.005Z,15.60
2023-04-16T13:42:02.646Z,15.60
2023-04-16T13:44:29.540Z,15.60
2023-04-16T13:46:56.683Z,15.70
2023-04-16T13:49:23.512Z,15.60
2023-04-16T13:51:50.639Z,15.70
2023-04-16T13:54:17.357Z,15.60
2023-04-16T13:56:44.101Z,15.60
2023-04-16T13:59:11.311Z,15.70
2023-04-16T14:01:38.317Z,15.70
2023-04-16T14:04:07.106Z,15.70
2023-04-16T14:06:36.614Z,15.70
2023-04-16T14:09:04.180Z,15.70
2023-04-16T14:11:31.405Z,15.70
2023-04-16T14:13:58.321Z,15.80
2023-04-16T14:16:25.118Z,15.80
2023-04-16T14:18:52.105Z,15.80
2023-04-16T14:21:19.139Z,15.80
2023-04-16T14:23:46.011Z,15.80
2023-04-16T14:26:12.957Z,15.70
2023-04-16T14:28:40.922Z,15.80
2023-04-16T14:31:07.692Z,15.70
2023-04-16T14:33:34.462Z,15.70
2023-04-16T14:36:02.982Z,15.70
2023-04-16T14:38:30.259Z,15.70
2023-04-16T14:40:57.080Z,15.80
2023-04-16T14:43:23.726Z,15.80
2023-04-16T14:45:51.072Z,15.80
2023-04-16T14:48:18.004Z,15.80
2023-04-16T14:50:44.920Z,15.80
2023-04-16T14:53:12.400Z,15.80
2023-04-16T14:55:39.116Z,15.80
2023-04-16T14:58:05.893Z,15.80
2023-04-16T15:00:34.863Z,15.80
2023-04-16T15:03:01.694Z,15.80
2023-04-16T15:07:55.783Z,15.80
2023-04-16T15:10:22.542Z,15.80
2023-04-16T15:12:49.167Z,15.80
2023-04-16T15:15:15.980Z,15.80
2023-04-16T15:17:43.506Z,15.80
2023-04-16T15:20:10.923Z,15.80
2023-04-16T15:22:38.348Z,15.80
2023-04-16T15:25:06.346Z,15.80
2023-04-16T15:27:33.175Z,15.80
2023-04-16T15:30:00.032Z,15.80
2023-04-16T15:32:26.851Z,15.80
2023-04-16T15:34:53.623Z,15.80
2023-04-16T15:37:20.372Z,15.80
2023-04-16T15:39:47.113Z,15.80
2023-04-16T15:42:13.834Z,15.80
2023-04-16T15:44:40.910Z,15.80
2023-04-16T15:47:08.688Z,15.80
2023-04-16T15:49:35.988Z,15.80
2023-04-16T15:52:03.093Z,15.70
2023-04-16T15:54:30.780Z,15.60
2023-04-16T15:56:58.744Z,15.50
2023-04-16T15:59:26.621Z,15.50
2023-04-16T16:01:53.603Z,15.40
2023-04-16T16:04:22.860Z,15.40
2023-04-16T16:06:50.407Z,15.30
2023-04-16T16:09:17.353Z,15.30
2023-04-16T16:11:44.173Z,15.20
2023-04-16T16:14:11.023Z,15.20
2023-04-16T16:16:37.938Z,15.10
2023-04-16T16:19:05.805Z,15.10
2023-04-16T16:21:32.746Z,15.10
2023-04-16T16:23:59.514Z,15.20
2023-04-16T16:26:26.272Z,15.30
2023-04-16T16:28:53.262Z,15.30
2023-04-16T16:31:20.059Z,15.40
2023-04-16T16:33:46.732Z,15.50
2023-04-16T16:36:13.466Z,15.50
2023-04-16T16:38:41.314Z,15.50
2023-04-16T16:41:08.139Z,15.60
2023-04-16T16:43:37.738Z,15.60
2023-04-16T16:46:07.169Z,15.60
2023-04-16T16:48:34.007Z,15.70
2023-04-16T16:51:00.736Z,15.70
2023-04-16T16:53:27.479Z,15.70
2023-04-16T16:55:54.211Z,15.70
2023-04-16T16:58:20.980Z,15.70
2023-04-16T17:00:47.674Z,15.70
2023-04-16T17:03:14.654Z,15.70
2023-04-16T17:05:41.653Z,15.70
2023-04-16T17:08:08.309Z,15.80
2023-04-16T17:10:35.837Z,15.70
2023-04-16T17:13:02.632Z,15.70
2023-04-16T17:15:29.567Z,15.70
2023-04-16T17:17:57.150Z,15.70
2023-04-16T17:20:24.185Z,15.70
2023-04-16T17:22:51.249Z,15.70
2023-04-16T17:25:18.182Z,15.70
2023-04-16T17:27:44.979Z,15.70
2023-04-16T17:30:11.946Z,15.60
2023-04-16T17:32:38.630Z,15.60
2023-04-16T17:35:06.878Z,15.60
2023-04-16T17:37:33.625Z,15.60
2023-04-16T17:40:00.461Z,15.60
2023-04-16T17:42:27.324Z,15.50
2023-04-16T17:44:54.149Z,15.50
2023-04-16T17:47:20.972Z,15.50
2023-04-16T17:49:47.779Z,15.50
2023-04-16T17:52:14.577Z,15.40
2023-04-16T17:54:42.178Z,15.40
2023-04-16T17:57:10.010Z,15.40
2023-04-16T17:59:36.677Z,15.40
2023-04-16T18:02:03.643Z,15.40
2023-04-16T18:04:30.802Z,15.30
2023-04-16T18:06:57.755Z,15.30
2023-04-16T18:09:24.518Z,15.30
2023-04-16T18:11:51.210Z,15.30
2023-04-16T18:14:20.084Z,15.30
2023-04-16T18:16:50.285Z,15.30
2023-04-16T18:19:17.075Z,15.30
2023-04-16T18:21:44.950Z,15.30
2023-04-16T18:24:12.116Z,15.30
2023-04-16T18:26:41.091Z,15.30
2023-04-16T18:29:09.026Z,15.40
2023-04-16T18:31:36.263Z,15.40
2023-04-16T18:34:03.139Z,15.40
2023-04-16T18:36:29.900Z,15.40
2023-04-16T18:39:02.274Z,15.40
2023-04-16T18:41:30.727Z,15.40
2023-04-16T18:43:57.692Z,15.40
2023-04-16T18:46:26.776Z,15.40
2023-04-16T18:48:53.746Z,15.40
2023-04-16T18:51:21.264Z,15.40
2023-04-16T18:53:48.029Z,15.40
2023-04-16T18:56:14.748Z,15.40
2023-04-16T18:58:41.502Z,15.40
2023-04-16T19:01:11.296Z,15.40
2023-04-16T19:03:38.844Z,15.40
2023-04-16T19:06:06.319Z,15.40
2023-04-16T19:08:33.107Z,15.40
2023-04-16T19:10:59.899Z,15.40
2023-04-16T19:13:26.735Z,15.40
2023-04-16T19:16:02.799Z,15.40
2023-04-16T19:18:29.501Z,15.40
2023-04-16T19:21:00.630Z,15.40
2023-04-16T19:23:27.928Z,15.40
2023-04-16T19:25:56.729Z,15.40
2023-04-16T19:28:27.283Z,15.30
2023-04-16T19:30:54.334Z,15.40
2023-04-16T19:33:21.087Z,15.30
2023-04-16T19:35:47.925Z,15.30
2023-04-16T19:38:14.773Z,15.30
2023-04-16T19:40:45.378Z,15.30
2023-04-16T19:43:12.436Z,15.30
2023-04-16T19:45:46.527Z,15.30
2023-04-16T19:48:14.746Z,15.30
2023-04-16T19:50:42.358Z,15.30
2023-04-16T19:53:11.381Z,15.30
2023-04-16T19:55:41.937Z,15.30
2023-04-16T19:58:09.486Z,15.30
2023-04-16T20:00:43.173Z,15.30
2023-04-16T20:03:10.089Z,15.30
2023-04-16T20:05:36.837Z,15.30
2023-04-16T20:08:03.727Z,15.30
2023-04-16T20:10:31.596Z,15.30
2023-04-16T20:12:58.513Z,15.20
2023-04-16T20:15:25.271Z,15.30
2023-04-16T20:17:52.390Z,15.30
2023-04-16T20:20:19.277Z,15.30
2023-04-16T20:22:46.080Z,15.30
2023-04-16T20:25:14.311Z,15.30
2023-04-16T20:27:41.090Z,15.30
2023-04-16T20:30:08.262Z,15.30
2023-04-16T20:32:34.974Z,15.30
2023-04-16T20:47:24.518Z,15.30
2023-04-16T20:49:52.715Z,15.20
2023-04-16T20:52:19.781Z,15.10
2023-04-16T20:54:47.919Z,15.10
2023-04-16T20:57:14.617Z,15.00
2023-04-16T20:59:41.321Z,15.00
2023-04-16T21:02:08.121Z,15.00
2023-04-16T21:04:35.060Z,14.90
2023-04-16T21:07:04.132Z,14.90
2023-04-16T21:09:31.479Z,14.90
2023-04-16T21:11:58.225Z,14.90
2023-04-16T21:14:24.904Z,14.80
2023-04-16T21:16:51.593Z,14.80
2023-04-16T21:19:18.293Z,14.80
2023-04-16T21:21:44.995Z,14.80
2023-04-16T21:24:11.659Z,14.80
2023-04-16T21:26:38.358Z,14.70
2023-04-16T21:29:05.045Z,14.70
2023-04-16T21:33:58.476Z,14.70
2023-04-16T21:36:27.724Z,14.70
2023-04-16T21:38:54.880Z,14.70
2023-04-16T21:41:21.676Z,14.70
2023-04-16T21:43:48.595Z,14.70
2023-04-16T21:46:15.356Z,14.70
2023-04-16T21:48:42.090Z,14.70
2023-04-16T21:51:10.115Z,14.60
2023-04-16T21:53:39.066Z,14.60
2023-04-16T21:56:06.521Z,14.60
2023-04-16T21:58:33.207Z,14.60
2023-04-16T22:00:59.903Z,14.50
2023-04-16T22:03:28.153Z,14.50
2023-04-16T22:06:01.079Z,14.50
2023-04-16T22:08:31.118Z,14.50
2023-04-16T22:11:01.269Z,14.60
2023-04-16T22:13:42.017Z,14.50
2023-04-16T22:16:11.484Z,14.50
2023-04-16T22:18:38.755Z,14.50
2023-04-16T22:21:05.561Z,14.50
2023-04-16T22:23:32.401Z,14.50
2023-04-16T22:25:59.081Z,14.50
2023-04-16T22:28:25.853Z,14.50
2023-04-16T22:30:52.609Z,14.50
2023-04-16T22:33:19.372Z,14.50
2023-04-16T22:35:46.150Z,14.50
2023-04-16T22:38:13.051Z,14.50
2023-04-16T22:40:39.751Z,14.50
2023-04-16T22:43:06.497Z,14.50
2023-04-16T22:45:33.298Z,14.50
2023-04-16T22:48:00.048Z,14.40
2023-04-16T22:50:27.175Z,14.40
2023-04-16T22:52:53.878Z,14.40
2023-04-16T22:55:20.636Z,14.40
2023-04-16T22:57:47.645Z,14.40
2023-04-16T23:00:16.627Z,14.40
2023-04-16T23:02:43.880Z,14.40
2023-04-16T23:05:10.903Z,14.40
2023-04-16T23:07:37.687Z,14.30
2023-04-16T23:10:04.769Z,14.30
2023-04-16T23:12:31.529Z,14.30
2023-04-16T23:14:58.362Z,14.30
2023-04-16T23:17:25.172Z,14.30
2023-04-16T23:19:51.922Z,14.30
2023-04-16T23:22:18.602Z,14.30
2023-04-16T23:24:45.720Z,14.30
2023-04-16T23:27:12.460Z,14.30
2023-04-16T23:29:39.146Z,14.30
2023-04-16T23:32:06.002Z,14.30
2023-04-16T23:34:32.666Z,14.30
2023-04-16T23:36:59.310Z,14.30
2023-04-16T23:39:26.189Z,14.30
2023-04-16T23:41:52.892Z,14.30
2023-04-16T23:44:19.540Z,14.20
2023-04-16T23:49:13.517Z,14.20
2023-04-16T23:51:40.271Z,14.20
2023-04-16T23:54:07.076Z,14.20
2023-04-16T23:56:33.946Z,14.20
2023-04-16T23:59:00.730Z,14.20
